Time;durP1;ratioP1;P1;durP2;ratioP2;P2;SDS_P1;SDS_P2;PMS_P1;PMS_P2;Temp;Humidity;BMP_temperature;BMP_pressure;BME280_temperature;BME280_humidity;BME280_pressure;Samples;Min_cycle;Max_cycle;Signal;HPM_P1;HPM_P2
2023/12/02 00:01:56;;;;;;;13.27;6.97;;;1.90;76.50;;;;;;5054308;28;20032;-60
2023/12/02 00:04:22;;;;;;;12.65;6.55;;;1.90;76.50;;;;;;5061223;28;20349;-60
2023/12/02 00:06:47;;;;;;;9.73;6.10;;;1.90;76.40;;;;;;5037509;28;20029;-60
2023/12/02 00:09:13;;;;;;;17.40;7.25;;;1.90;76.40;;;;;;5056366;28;20028;-60
2023/12/02 00:11:39;;;;;;;13.70;7.82;;;1.90;76.30;;;;;;5061591;28;20086;-60
2023/12/02 00:14:05;;;;;;;11.00;7.45;;;1.90;76.30;;;;;;5056641;28;20103;-60
2023/12/02 00:16:30;;;;;;;12.93;7.25;;;1.90;76.20;;;;;;5056987;28;20033;-60
2023/12/02 00:18:56;;;;;;;10.75;7.85;;;1.90;76.20;;;;;;5060587;28;20041;-60
2023/12/02 00:21:22;;;;;;;13.80;6.97;;;1.90;76.30;;;;;;5059716;28;20067;-60
2023/12/02 00:23:48;;;;;;;10.43;6.15;;;1.80;76.20;;;;;;5053250;28;20152;-60
2023/12/02 00:26:14;;;;;;;11.95;7.43;;;1.80;76.20;;;;;;5057058;28;20103;-60
2023/12/02 00:28:39;;;;;;;12.18;7.53;;;1.80;76.20;;;;;;5055529;28;20029;-60
2023/12/02 00:31:05;;;;;;;13.25;6.57;;;1.80;76.20;;;;;;5056834;28;20036;-60
2023/12/02 00:33:31;;;;;;;16.60;7.03;;;1.80;76.20;;;;;;5058540;28;20454;-60
2023/12/02 00:35:57;;;;;;;12.65;6.90;;;1.80;76.20;;;;;;5053944;28;20116;-60
2023/12/02 00:38:23;;;;;;;17.38;8.70;;;1.80;76.20;;;;;;5054511;28;20069;-60
2023/12/02 00:40:48;;;;;;;13.60;7.38;;;1.80;76.30;;;;;;5056748;28;20025;-60
2023/12/02 00:43:14;;;;;;;13.55;7.18;;;1.90;76.30;;;;;;5059474;28;20032;-60
2023/12/02 00:45:40;;;;;;;12.02;6.35;;;1.90;76.30;;;;;;5046130;28;20116;-60
2023/12/02 00:48:05;;;;;;;13.48;6.97;;;1.90;76.20;;;;;;5047025;28;20033;-60
2023/12/02 00:50:31;;;;;;;11.40;7.22;;;1.80;76.10;;;;;;5042038;28;20029;-60
2023/12/02 00:52:57;;;;;;;13.88;6.97;;;1.80;76.10;;;;;;5056021;28;20605;-60
2023/12/02 00:55:23;;;;;;;10.13;5.13;;;1.80;76.10;;;;;;5049628;28;20048;-60
2023/12/02 00:57:49;;;;;;;10.80;6.40;;;1.80;76.10;;;;;;5049045;28;20104;-60
2023/12/02 01:00:15;;;;;;;11.27;7.00;;;1.80;76.60;;;;;;5059515;28;20047;-60
2023/12/02 01:02:42;;;;;;;10.32;7.47;;;1.70;76.10;;;;;;5035692;28;20027;-60
2023/12/02 01:05:08;;;;;;;10.05;6.43;;;1.70;76.20;;;;;;5054427;28;20033;-60
2023/12/02 01:07:34;;;;;;;18.15;8.70;;;1.70;76.20;;;;;;5054140;28;20053;-59
2023/12/02 01:10:00;;;;;;;13.43;7.10;;;1.70;76.20;;;;;;5053351;28;20051;-60
2023/12/02 01:12:25;;;;;;;12.07;6.70;;;1.70;76.20;;;;;;5046621;28;20029;-60
2023/12/02 01:14:52;;;;;;;10.75;6.30;;;1.70;76.20;;;;;;5048020;28;20044;-60
2023/12/02 01:17:17;;;;;;;10.05;6.53;;;1.70;76.10;;;;;;5053552;28;20021;-60
2023/12/02 01:19:44;;;;;;;11.80;6.95;;;1.70;76.10;;;;;;5047758;28;20033;-60
2023/12/02 01:22:10;;;;;;;13.80;6.75;;;1.70;76.10;;;;;;5050466;28;20041;-60
2023/12/02 01:24:36;;;;;;;10.52;6.55;;;1.60;76.20;;;;;;5057743;28;20090;-60
2023/12/02 01:27:01;;;;;;;10.75;6.40;;;1.70;76.20;;;;;;5055134;28;20032;-60
2023/12/02 01:29:27;;;;;;;10.10;6.25;;;1.70;76.10;;;;;;5055228;28;20389;-60
2023/12/02 01:31:53;;;;;;;11.98;6.10;;;1.70;76.10;;;;;;5055223;28;20492;-60
2023/12/02 01:34:18;;;;;;;9.98;6.93;;;1.70;76.00;;;;;;5059800;28;20028;-60
2023/12/02 01:36:45;;;;;;;12.20;5.68;;;1.70;75.90;;;;;;5049968;28;20082;-60
2023/12/02 01:39:12;;;;;;;8.82;5.55;;;1.70;76.00;;;;;;5050680;28;20032;-60
2023/12/02 01:41:39;;;;;;;15.23;6.95;;;1.70;76.10;;;;;;5043669;28;20020;-60
2023/12/02 01:44:05;;;;;;;10.93;6.05;;;1.70;76.00;;;;;;5055204;28;20029;-60
2023/12/02 01:46:31;;;;;;;10.52;6.30;;;1.80;76.00;;;;;;5056267;28;20035;-60
2023/12/02 01:49:02;;;;;;;7.38;5.22;;;1.80;76.50;;;;;;5054549;28;20052;-60
2023/12/02 01:51:28;;;;;;;9.48;6.90;;;1.80;75.90;;;;;;5057192;28;20029;-60
2023/12/02 01:53:54;;;;;;;12.70;5.95;;;1.80;76.00;;;;;;5057925;28;20720;-60
2023/12/02 01:56:20;;;;;;;10.27;6.07;;;1.80;76.00;;;;;;5051438;28;20115;-61
2023/12/02 01:58:47;;;;;;;7.65;5.22;;;1.80;76.00;;;;;;5056931;28;20112;-60
2023/12/02 02:01:13;;;;;;;9.93;6.00;;;1.80;75.90;;;;;;5055750;28;20154;-60
2023/12/02 02:03:39;;;;;;;12.27;6.82;;;1.80;75.90;;;;;;5058627;28;20103;-60
2023/12/02 02:06:09;;;;;;;12.80;5.85;;;1.80;75.80;;;;;;5053857;28;20033;-60
2023/12/02 02:08:34;;;;;;;13.20;6.30;;;1.80;75.80;;;;;;5062386;28;20028;-60
2023/12/02 02:11:00;;;;;;;7.93;5.18;;;1.80;75.80;;;;;;5055470;28;20033;-60
2023/12/02 02:13:27;;;;;;;10.60;5.85;;;1.80;75.80;;;;;;5056043;28;20131;-60
2023/12/02 02:15:54;;;;;;;10.73;5.65;;;1.80;75.80;;;;;;5056236;28;20151;-60
2023/12/02 02:18:20;;;;;;;11.55;5.30;;;1.80;75.70;;;;;;5053803;28;20118;-60
2023/12/02 02:20:50;;;;;;;11.98;6.82;;;1.70;75.70;;;;;;5052601;28;20653;-60
2023/12/02 02:23:18;;;;;;;7.47;5.10;;;1.70;75.80;;;;;;5052594;28;20102;-60
2023/12/02 02:25:45;;;;;;;10.90;6.22;;;1.70;75.70;;;;;;5048604;28;20151;-60
2023/12/02 02:28:11;;;;;;;10.00;6.05;;;1.80;75.80;;;;;;5051072;28;20029;-61
2023/12/02 02:30:36;;;;;;;10.25;6.10;;;1.80;75.80;;;;;;5051402;28;20028;-60
2023/12/02 02:33:02;;;;;;;12.38;6.80;;;1.70;75.90;;;;;;5035943;28;20044;-60
2023/12/02 02:35:28;;;;;;;12.27;7.53;;;1.80;75.90;;;;;;5047413;28;20033;-60
2023/12/02 02:37:53;;;;;;;8.73;5.82;;;1.70;75.90;;;;;;5052296;28;20126;-60
2023/12/02 02:40:19;;;;;;;10.68;5.63;;;1.80;75.90;;;;;;5049872;28;20032;-60
2023/12/02 02:42:45;;;;;;;11.40;6.97;;;1.80;75.90;;;;;;5050130;28;20155;-60
2023/12/02 02:45:11;;;;;;;9.48;6.00;;;1.80;75.90;;;;;;5051839;28;20033;-60
2023/12/02 02:47:37;;;;;;;12.25;5.75;;;1.80;75.80;;;;;;5056935;28;20028;-60
2023/12/02 02:50:03;;;;;;;11.32;6.13;;;1.80;75.80;;;;;;5058092;28;20737;-60
2023/12/02 02:52:29;;;;;;;8.35;5.32;;;1.80;75.80;;;;;;5060601;28;20038;-60
2023/12/02 02:54:54;;;;;;;12.63;6.80;;;1.80;75.70;;;;;;5051129;28;20036;-60
2023/12/02 02:57:20;;;;;;;13.68;7.75;;;1.80;75.70;;;;;;5063175;28;20438;-60
2023/12/02 02:59:46;;;;;;;11.52;6.55;;;1.80;75.70;;;;;;5055809;28;20047;-61
2023/12/02 03:02:12;;;;;;;15.75;7.82;;;1.80;75.70;;;;;;5062141;28;20036;-60
2023/12/02 03:04:38;;;;;;;10.05;5.45;;;1.80;76.20;;;;;;5050084;28;20369;-60
2023/12/02 03:07:04;;;;;;;11.32;6.90;;;1.80;75.60;;;;;;5052605;28;20082;-60
2023/12/02 03:09:30;;;;;;;9.25;5.68;;;1.80;75.60;;;;;;5062550;28;20082;-60
2023/12/02 03:11:56;;;;;;;9.77;7.05;;;1.90;75.60;;;;;;5062954;28;20028;-60
2023/12/02 03:14:22;;;;;;;10.20;5.88;;;1.90;75.60;;;;;;5064820;28;20036;-60
2023/12/02 03:16:48;;;;;;;12.32;7.50;;;1.90;75.60;;;;;;5053314;28;20021;-60
2023/12/02 03:19:14;;;;;;;14.30;8.43;;;1.90;75.60;;;;;;5056311;28;20412;-60
2023/12/02 03:21:40;;;;;;;11.45;5.88;;;1.90;75.60;;;;;;5055131;28;20562;-60
2023/12/02 03:24:06;;;;;;;10.25;7.25;;;1.90;75.50;;;;;;5059576;28;20106;-60
2023/12/02 03:26:35;;;;;;;9.65;5.70;;;1.90;75.60;;;;;;5059497;28;20490;-60
2023/12/02 03:29:01;;;;;;;13.15;6.10;;;1.80;75.50;;;;;;5056374;28;20039;-60
2023/12/02 03:31:26;;;;;;;10.23;5.38;;;1.80;75.50;;;;;;5057648;28;20029;-60
2023/12/02 03:33:52;;;;;;;10.90;6.47;;;1.90;76.10;;;;;;5057318;28;20044;-60
2023/12/02 03:36:18;;;;;;;12.95;6.60;;;1.90;75.50;;;;;;5058388;28;20033;-60
2023/12/02 03:38:43;;;;;;;8.70;5.80;;;1.90;75.50;;;;;;5057241;28;20040;-61
2023/12/02 03:41:09;;;;;;;13.50;6.13;;;1.80;75.40;;;;;;5059982;28;20059;-60
2023/12/02 03:43:35;;;;;;;13.27;6.93;;;1.80;75.40;;;;;;5062597;28;20473;-60
2023/12/02 03:46:02;;;;;;;8.90;6.47;;;1.80;75.50;;;;;;5054526;28;20024;-60
2023/12/02 03:48:27;;;;;;;12.65;8.25;;;1.80;75.40;;;;;;5056606;28;20032;-60
2023/12/02 03:50:53;;;;;;;12.77;6.60;;;1.80;75.30;;;;;;5057139;28;20023;-60
2023/12/02 03:53:19;;;;;;;11.77;6.90;;;1.70;75.30;;;;;;5059972;28;20076;-60
2023/12/02 03:55:46;;;;;;;11.02;5.95;;;1.70;75.50;;;;;;5055675;28;20071;-60
2023/12/02 03:58:11;;;;;;;10.75;6.70;;;1.70;75.60;;;;;;5057303;28;20066;-60
2023/12/02 04:00:37;;;;;;;10.13;6.03;;;1.80;75.60;;;;;;5055428;28;20036;-60
2023/12/02 04:03:03;;;;;;;14.55;7.53;;;1.80;75.50;;;;;;5053894;28;20033;-60
2023/12/02 04:05:29;;;;;;;9.73;6.05;;;1.80;75.40;;;;;;5053181;28;20422;-60
2023/12/02 04:07:54;;;;;;;10.85;5.68;;;1.80;75.60;;;;;;5049953;28;20052;-60
2023/12/02 04:10:20;;;;;;;12.45;6.40;;;1.80;75.60;;;;;;5049517;28;20379;-60
2023/12/02 04:12:46;;;;;;;10.27;6.28;;;1.80;75.60;;;;;;5056426;28;20548;-60
2023/12/02 04:15:12;;;;;;;13.90;6.80;;;1.80;75.60;;;;;;5056035;28;20032;-61
2023/12/02 04:17:38;;;;;;;13.88;6.82;;;1.80;75.70;;;;;;5053425;28;20079;-60
2023/12/02 04:20:08;;;;;;;14.52;6.97;;;1.80;75.70;;;;;;5052009;28;20056;-61
2023/12/02 04:22:35;;;;;;;11.68;6.78;;;1.80;75.70;;;;;;5051564;28;20053;-60
2023/12/02 04:25:01;;;;;;;14.77;6.75;;;1.70;75.80;;;;;;5055230;28;20103;-60
2023/12/02 04:27:26;;;;;;;10.07;6.05;;;1.70;75.80;;;;;;5052191;28;20021;-60
2023/12/02 04:29:52;;;;;;;12.93;5.50;;;1.70;75.80;;;;;;5051633;28;20029;-60
2023/12/02 04:32:18;;;;;;;11.38;6.80;;;1.70;75.60;;;;;;5048677;28;20496;-60
2023/12/02 04:34:44;;;;;;;10.70;6.65;;;1.70;75.60;;;;;;5063169;28;20070;-60
2023/12/02 04:37:10;;;;;;;11.27;6.10;;;1.70;75.80;;;;;;5063337;28;20075;-60
2023/12/02 04:39:35;;;;;;;15.63;7.70;;;1.70;75.80;;;;;;5057011;28;20040;-60
2023/12/02 04:42:01;;;;;;;11.75;5.90;;;1.70;75.80;;;;;;5064032;28;20077;-60
2023/12/02 04:44:27;;;;;;;11.60;7.70;;;1.60;75.80;;;;;;5047187;28;20519;-60
2023/12/02 04:46:53;;;;;;;12.32;6.60;;;1.60;75.90;;;;;;5060370;28;20021;-60
2023/12/02 04:49:18;;;;;;;12.20;5.72;;;1.60;75.90;;;;;;5059474;28;20491;-60
2023/12/02 04:51:44;;;;;;;12.32;7.43;;;1.50;75.90;;;;;;5050837;28;20025;-69
2023/12/02 04:54:10;;;;;;;10.40;7.28;;;1.50;75.80;;;;;;5053263;28;20032;-60
2023/12/02 04:56:36;;;;;;;13.52;6.15;;;1.50;76.00;;;;;;5062825;28;20033;-60
2023/12/02 04:59:02;;;;;;;9.35;5.50;;;1.40;75.90;;;;;;5056469;28;20089;-60
2023/12/02 05:01:28;;;;;;;10.00;6.25;;;1.40;76.00;;;;;;5060604;28;20036;-60
2023/12/02 05:03:54;;;;;;;12.40;7.18;;;1.40;76.10;;;;;;5055549;28;20020;-60
2023/12/02 05:06:19;;;;;;;8.23;5.00;;;1.50;76.10;;;;;;5058603;28;20028;-60
2023/12/02 05:08:45;;;;;;;8.50;6.15;;;1.50;76.10;;;;;;5056495;28;20066;-60
2023/12/02 05:11:19;;;;;;;9.23;5.43;;;1.50;76.60;;;;;;5050805;28;20033;-60
2023/12/02 05:13:48;;;;;;;8.43;5.57;;;1.60;76.00;;;;;;5049917;28;20083;-60
2023/12/02 05:16:14;;;;;;;10.15;6.15;;;1.50;75.90;;;;;;5051721;28;20094;-60
2023/12/02 05:18:40;;;;;;;12.68;6.57;;;1.50;75.70;;;;;;5053502;28;20029;-60
2023/12/02 05:21:07;;;;;;;11.60;7.38;;;1.50;76.00;;;;;;5046818;28;20373;-60
2023/12/02 05:23:33;;;;;;;12.07;6.68;;;1.50;76.00;;;;;;5051219;28;20456;-60
2023/12/02 05:25:58;;;;;;;10.65;6.85;;;1.50;76.00;;;;;;5053985;28;20025;-60
2023/12/02 05:28:24;;;;;;;10.75;5.70;;;1.50;76.00;;;;;;5052086;28;20061;-60
2023/12/02 05:30:50;;;;;;;11.82;5.97;;;1.60;76.10;;;;;;5055083;28;20032;-60
2023/12/02 05:33:17;;;;;;;11.65;6.38;;;1.60;76.00;;;;;;5052245;28;20125;-60
2023/12/02 05:35:43;;;;;;;9.13;6.30;;;1.60;76.00;;;;;;5052271;28;20060;-60
2023/12/02 05:38:09;;;;;;;12.75;6.40;;;1.60;76.00;;;;;;5052123;28;20496;-60
2023/12/02 05:40:34;;;;;;;10.07;6.75;;;1.60;75.90;;;;;;5053608;28;20029;-60
2023/12/02 05:43:00;;;;;;;13.02;6.25;;;1.70;76.00;;;;;;5054802;28;20028;-60
2023/12/02 05:45:26;;;;;;;9.90;5.43;;;1.70;76.00;;;;;;5052133;28;20021;-60
2023/12/02 05:47:51;;;;;;;14.60;7.80;;;1.70;76.00;;;;;;5061477;28;20116;-60
2023/12/02 05:50:17;;;;;;;9.77;6.07;;;1.70;76.00;;;;;;5064564;28;20029;-60
2023/12/02 05:52:43;;;;;;;10.35;6.43;;;1.70;76.10;;;;;;5054703;28;20483;-60
2023/12/02 05:55:09;;;;;;;12.27;5.65;;;1.70;76.10;;;;;;5042095;28;20313;-61
2023/12/02 05:57:35;;;;;;;12.20;6.75;;;1.70;76.00;;;;;;5053649;28;20133;-60
2023/12/02 06:00:01;;;;;;;10.63;6.00;;;1.60;76.00;;;;;;5046457;28;20143;-60
2023/12/02 06:02:26;;;;;;;8.52;5.35;;;1.60;76.20;;;;;;5053158;28;20035;-60
2023/12/02 06:04:52;;;;;;;11.82;7.05;;;1.60;76.20;;;;;;5051374;28;20021;-60
2023/12/02 06:07:18;;;;;;;10.80;7.43;;;1.60;76.20;;;;;;5054856;28;20028;-60
2023/12/02 06:09:43;;;;;;;12.60;6.93;;;1.60;76.20;;;;;;5047786;28;20026;-62
2023/12/02 06:12:10;;;;;;;8.93;5.63;;;1.60;76.20;;;;;;5053312;28;20033;-61
2023/12/02 06:14:36;;;;;;;13.85;6.75;;;1.50;76.20;;;;;;5052971;28;20471;-62
2023/12/02 06:17:03;;;;;;;12.90;6.90;;;1.50;76.40;;;;;;5052691;28;20021;-61
2023/12/02 06:19:28;;;;;;;13.68;5.93;;;1.60;76.40;;;;;;5045492;28;20028;-61
2023/12/02 06:21:54;;;;;;;10.52;6.22;;;1.60;76.50;;;;;;5066156;28;20036;-61
2023/12/02 06:24:20;;;;;;;13.88;7.15;;;1.60;76.40;;;;;;5051092;28;20055;-61
2023/12/02 06:26:45;;;;;;;10.93;6.53;;;1.60;76.40;;;;;;5060556;28;20396;-61
2023/12/02 06:29:11;;;;;;;8.65;6.25;;;1.60;76.40;;;;;;5053613;28;20071;-62
2023/12/02 06:31:37;;;;;;;11.93;6.45;;;1.60;76.30;;;;;;5058057;28;20075;-62
2023/12/02 06:34:04;;;;;;;12.50;7.03;;;1.60;76.40;;;;;;5057733;28;20621;-61
2023/12/02 06:36:30;;;;;;;16.75;5.38;;;1.60;76.40;;;;;;5056249;28;20090;-61
2023/12/02 06:38:56;;;;;;;13.10;7.75;;;1.50;76.40;;;;;;5056988;28;20021;-61
2023/12/02 06:41:22;;;;;;;11.65;6.28;;;1.50;76.40;;;;;;5057578;28;20112;-61
2023/12/02 06:43:48;;;;;;;9.93;5.82;;;1.60;76.50;;;;;;5049352;28;20021;-61
2023/12/02 06:46:23;;;;;;;13.18;6.57;;;1.60;76.50;;;;;;5050256;28;20060;-61
2023/12/02 06:48:49;;;;;;;12.63;6.43;;;1.60;76.60;;;;;;5051067;28;20037;-61
2023/12/02 06:51:16;;;;;;;11.15;6.63;;;1.50;76.30;;;;;;5060039;28;20031;-61
2023/12/02 06:53:41;;;;;;;14.32;7.60;;;1.50;76.40;;;;;;5052233;28;20468;-61
2023/12/02 06:56:23;;;;;;;16.88;8.50;;;1.50;76.50;;;;;;5057785;28;20036;-61
2023/12/02 06:58:50;;;;;;;12.23;6.93;;;1.50;76.50;;;;;;5047120;28;20075;-62
2023/12/02 07:01:27;;;;;;;14.77;7.05;;;1.50;76.50;;;;;;5049866;28;20033;-61
2023/12/02 07:03:57;;;;;;;13.25;6.57;;;1.50;76.70;;;;;;5052878;28;20025;-61
2023/12/02 07:06:24;;;;;;;10.25;6.65;;;1.50;76.70;;;;;;5046806;28;20052;-59
2023/12/02 07:08:51;;;;;;;15.20;7.90;;;1.40;76.70;;;;;;5048312;28;20531;-61
2023/12/02 07:11:17;;;;;;;11.50;6.50;;;1.40;76.80;;;;;;5042941;28;20548;-61
2023/12/02 07:13:43;;;;;;;14.25;7.47;;;1.40;76.80;;;;;;5057612;28;20730;-61
2023/12/02 07:16:09;;;;;;;15.65;8.02;;;1.40;76.90;;;;;;5052583;28;20048;-61
2023/12/02 07:18:34;;;;;;;13.43;7.63;;;1.40;76.90;;;;;;5057976;28;20565;-61
2023/12/02 07:21:00;;;;;;;10.25;6.20;;;1.40;77.00;;;;;;5055694;28;20056;-60
2023/12/02 07:23:28;;;;;;;12.57;6.97;;;1.50;77.10;;;;;;5054072;28;20098;-60
2023/12/02 07:25:57;;;;;;;13.93;6.22;;;1.50;76.90;;;;;;5050284;28;20104;-59
2023/12/02 07:28:23;;;;;;;12.68;6.30;;;1.50;76.80;;;;;;5053093;28;20029;-60
2023/12/02 07:30:49;;;;;;;11.43;7.45;;;1.60;76.80;;;;;;5060668;28;20028;-60
2023/12/02 07:33:15;;;;;;;12.90;6.90;;;1.50;76.80;;;;;;5052467;28;20079;-59
2023/12/02 07:35:41;;;;;;;12.93;8.30;;;1.50;76.80;;;;;;5055517;28;20033;-60
2023/12/02 07:38:06;;;;;;;11.18;7.25;;;1.50;76.90;;;;;;5058035;28;20533;-60
2023/12/02 07:40:32;;;;;;;12.65;6.00;;;1.50;76.80;;;;;;5052382;28;20035;-60
2023/12/02 07:42:58;;;;;;;12.27;7.30;;;1.50;76.90;;;;;;5051302;28;20024;-60
2023/12/02 07:45:23;;;;;;;10.27;6.75;;;1.50;77.00;;;;;;5062185;28;20032;-59
2023/12/02 07:47:49;;;;;;;15.20;7.25;;;1.50;76.90;;;;;;5062798;28;20428;-60
2023/12/02 07:50:15;;;;;;;13.77;7.50;;;1.50;77.00;;;;;;5049809;28;20427;-60
2023/12/02 07:52:41;;;;;;;15.00;8.15;;;1.60;77.00;;;;;;5053456;28;20514;-60
2023/12/02 07:55:07;;;;;;;14.32;7.60;;;1.60;76.80;;;;;;5058718;28;20067;-59
2023/12/02 07:57:33;;;;;;;13.30;7.45;;;1.50;76.70;;;;;;5055174;28;20041;-59
2023/12/02 07:59:58;;;;;;;12.75;6.68;;;1.50;76.90;;;;;;5052182;28;20021;-60
2023/12/02 08:02:24;;;;;;;14.63;6.20;;;1.50;76.90;;;;;;5050988;28;20112;-60
2023/12/02 08:04:50;;;;;;;10.38;7.22;;;1.50;76.90;;;;;;5056315;28;20025;-61
2023/12/02 08:07:15;;;;;;;14.60;7.30;;;1.60;77.00;;;;;;5055051;28;20065;-61
2023/12/02 08:09:41;;;;;;;12.82;6.47;;;1.60;76.80;;;;;;5051603;28;20063;-61
2023/12/02 08:12:07;;;;;;;9.75;5.90;;;1.60;76.70;;;;;;5056815;28;20479;-61
2023/12/02 08:14:33;;;;;;;16.00;7.93;;;1.60;76.60;;;;;;5054235;28;20033;-61
2023/12/02 08:16:58;;;;;;;12.10;7.28;;;1.60;76.70;;;;;;5057158;28;20099;-61
2023/12/02 08:19:24;;;;;;;10.40;6.07;;;1.60;76.60;;;;;;5053975;28;20052;-61
2023/12/02 08:21:50;;;;;;;11.63;6.80;;;1.60;76.60;;;;;;5052754;28;20388;-61
2023/12/02 08:24:16;;;;;;;12.52;6.57;;;1.60;76.60;;;;;;5051482;28;20041;-61
2023/12/02 08:26:43;;;;;;;12.52;6.90;;;1.70;76.50;;;;;;5055126;28;20035;-61
2023/12/02 08:29:08;;;;;;;11.32;6.35;;;1.70;76.50;;;;;;5052566;28;20499;-61
2023/12/02 08:31:34;;;;;;;7.70;5.43;;;1.70;76.30;;;;;;5056194;28;20025;-61
2023/12/02 08:34:00;;;;;;;14.10;6.70;;;1.70;76.40;;;;;;5056258;28;20039;-61
2023/12/02 08:36:27;;;;;;;16.73;8.07;;;1.80;76.50;;;;;;5052060;28;20032;-61
2023/12/02 08:38:53;;;;;;;13.20;6.57;;;1.80;76.40;;;;;;5054780;28;20067;-61
2023/12/02 08:41:18;;;;;;;14.25;8.32;;;1.90;76.00;;;;;;5040182;28;20076;-61
2023/12/02 08:43:44;;;;;;;15.73;7.07;;;1.80;75.80;;;;;;5053511;28;20033;-61
2023/12/02 08:46:17;;;;;;;14.07;7.03;;;1.80;75.90;;;;;;5052108;28;20040;-61
2023/12/02 08:48:43;;;;;;;11.32;7.38;;;1.80;75.80;;;;;;5048770;28;20136;-61
2023/12/02 08:51:09;;;;;;;8.95;6.10;;;1.90;75.80;;;;;;5040089;28;20024;-61
2023/12/02 08:53:35;;;;;;;14.07;7.05;;;1.90;75.70;;;;;;5058534;28;20063;-61
2023/12/02 08:56:00;;;;;;;13.73;7.80;;;1.90;75.60;;;;;;5050375;28;20025;-61
2023/12/02 08:58:26;;;;;;;14.32;7.05;;;1.90;75.70;;;;;;5054313;28;20037;-62
2023/12/02 09:00:52;;;;;;;12.35;6.82;;;1.90;75.70;;;;;;5040602;28;20044;-60
2023/12/02 09:03:18;;;;;;;16.58;7.32;;;2.00;75.60;;;;;;5048296;28;20135;-61
2023/12/02 09:05:44;;;;;;;9.65;7.03;;;2.00;75.40;;;;;;5050565;28;20059;-61
2023/12/02 09:08:09;;;;;;;11.18;6.45;;;2.10;75.60;;;;;;5040914;28;20435;-61
2023/12/02 09:10:35;;;;;;;13.20;7.65;;;2.20;75.30;;;;;;5047613;28;20025;-61
2023/12/02 09:13:06;;;;;;;16.55;7.57;;;2.30;75.00;;;;;;5048648;28;20407;-60
2023/12/02 09:15:39;;;;;;;12.70;8.57;;;2.30;74.90;;;;;;5039441;28;20028;-60
2023/12/02 09:18:05;;;;;;;10.18;6.22;;;2.30;74.60;;;;;;5056355;28;20085;-60
2023/12/02 09:20:49;;;;;;;9.88;5.70;;;2.30;74.90;;;;;;5055326;28;20485;-60
2023/12/02 09:23:17;;;;;;;15.38;6.60;;;2.40;74.90;;;;;;5056410;28;20049;-60
2023/12/02 09:25:43;;;;;;;15.90;8.05;;;2.40;74.80;;;;;;5055556;28;20032;-60
2023/12/02 09:28:19;;;;;;;14.23;6.90;;;2.50;74.90;;;;;;5047453;28;20053;-60
2023/12/02 09:30:58;;;;;;;13.60;6.35;;;2.50;74.70;;;;;;5038846;28;20526;-61
2023/12/02 09:33:25;;;;;;;15.93;7.18;;;2.50;74.60;;;;;;5038672;28;20032;-61
2023/12/02 09:35:54;;;;;;;13.30;6.88;;;2.60;74.70;;;;;;5032461;28;20033;-61
2023/12/02 09:38:20;;;;;;;15.30;7.65;;;2.70;74.60;;;;;;5032274;28;20037;-62
2023/12/02 09:41:04;;;;;;;15.85;8.95;;;2.70;74.20;;;;;;5038358;28;20042;-62
2023/12/02 09:43:37;;;;;;;12.55;6.82;;;2.70;73.90;;;;;;5036256;28;20036;-61
2023/12/02 09:46:14;;;;;;;18.02;8.05;;;2.70;74.20;;;;;;5050044;28;20040;-61
2023/12/02 09:49:05;;;;;;;18.02;8.05;;;2.70;74.20;;;;;;5038218;28;20399;-62
2023/12/02 09:51:57;;;;;;;13.32;7.13;;;2.80;74.30;;;;;;5048170;28;20039;-61
2023/12/02 09:54:44;;;;;;;15.63;9.10;;;2.90;74.10;;;;;;5037509;28;20106;-62
2023/12/02 09:57:26;;;;;;;15.02;7.95;;;2.90;73.80;;;;;;5032675;28;20681;-61
2023/12/02 09:59:52;;;;;;;;;;;2.90;73.80;;;;;;5038256;28;20045;-61
2023/12/02 10:02:36;;;;;;;10.27;7.82;;;3.00;73.80;;;;;;5029307;28;19959;-61
2023/12/02 10:05:04;;;;;;;14.25;8.60;;;3.00;73.70;;;;;;5055449;28;20100;-62
2023/12/02 10:07:40;;;;;;;14.75;8.02;;;3.30;73.60;;;;;;5052439;28;20055;-61
2023/12/02 10:10:13;;;;;;;14.18;9.20;;;3.50;73.20;;;;;;5055456;28;20020;-61
2023/12/02 10:13:05;;;;;;;13.63;7.72;;;3.70;73.20;;;;;;5055403;28;20081;-61
2023/12/02 10:15:34;;;;;;;13.70;7.70;;;4.20;73.10;;;;;;5044937;28;20065;-61
2023/12/02 10:18:07;;;;;;;13.73;8.07;;;5.30;71.00;;;;;;5054602;28;20107;-61
2023/12/02 10:20:35;;;;;;;13.30;8.35;;;6.40;67.60;;;;;;5053119;28;20484;-61
2023/12/02 10:23:26;;;;;;;16.05;8.68;;;6.60;65.40;;;;;;5052166;28;20041;-61
2023/12/02 10:26:07;;;;;;;17.58;9.30;;;6.30;65.60;;;;;;5054959;28;20376;-61
2023/12/02 10:28:38;;;;;;;19.83;9.35;;;6.00;65.60;;;;;;5052273;28;20036;-61
2023/12/02 10:31:05;;;;;;;17.73;8.43;;;5.50;66.00;;;;;;5046009;28;20141;-61
2023/12/02 10:34:09;;;;;;;18.77;9.77;;;5.20;67.30;;;;;;5054308;28;20928;-62
2023/12/02 10:36:37;;;;;;;18.92;9.07;;;5.00;67.40;;;;;;5002863;28;20041;-62
2023/12/02 10:39:09;;;;;;;17.63;9.05;;;4.70;68.50;;;;;;5010059;28;20033;-62
2023/12/02 10:41:48;;;;;;;17.08;7.78;;;4.70;69.00;;;;;;5029377;28;20431;-61
2023/12/02 10:44:18;;;;;;;17.90;10.05;;;4.70;69.20;;;;;;5055641;28;20021;-62
2023/12/02 10:46:45;;;;;;;20.10;9.40;;;4.80;68.70;;;;;;5056332;28;20021;-61
2023/12/02 10:49:12;;;;;;;15.00;9.20;;;4.90;68.20;;;;;;5057374;28;20025;-61
2023/12/02 10:51:41;;;;;;;17.10;8.63;;;4.80;68.40;;;;;;5054260;28;20082;-61
2023/12/02 10:54:12;;;;;;;12.27;7.82;;;4.80;68.40;;;;;;5054842;28;20032;-61
2023/12/02 10:56:45;;;;;;;18.27;9.87;;;4.70;68.50;;;;;;5051608;28;20029;-61
2023/12/02 10:59:12;;;;;;;11.90;7.28;;;4.60;68.80;;;;;;5054781;28;20107;-62
2023/12/02 11:02:16;;;;;;;12.63;8.75;;;4.50;69.50;;;;;;5049660;28;20032;-61
2023/12/02 11:04:49;;;;;;;15.65;9.82;;;4.50;69.70;;;;;;5010141;28;20050;-59
2023/12/02 11:07:16;;;;;;;15.13;9.55;;;4.40;70.20;;;;;;5045124;28;20080;-60
2023/12/02 11:09:42;;;;;;;21.73;10.23;;;4.30;70.20;;;;;;5060409;28;20032;-61
2023/12/02 11:12:13;;;;;;;18.73;9.60;;;4.30;70.40;;;;;;5054378;28;20450;-61
2023/12/02 11:14:41;;;;;;;16.53;9.80;;;4.30;70.80;;;;;;5052175;28;20021;-60
2023/12/02 11:17:39;;;;;;;16.10;8.50;;;4.50;70.80;;;;;;5056033;28;20262;-63
2023/12/02 11:20:12;;;;;;;18.27;11.00;;;4.60;70.20;;;;;;5052729;28;20025;-61
2023/12/02 11:23:03;;;;;;;17.65;9.85;;;4.70;70.00;;;;;;5051221;28;20372;-62
2023/12/02 11:26:14;;;;;;;20.30;9.40;;;4.70;69.90;;;;;;5052528;28;20024;-61
2023/12/02 11:28:53;;;;;;;14.05;7.10;;;4.60;69.70;;;;;;5038477;28;20043;-61
2023/12/02 11:31:41;;;;;;;17.75;9.55;;;4.30;70.40;;;;;;5044145;28;20519;-61
2023/12/02 11:34:25;;;;;;;16.95;9.98;;;4.20;70.90;;;;;;5051745;28;20032;-61
2023/12/02 11:36:59;;;;;;;18.75;9.82;;;4.10;70.90;;;;;;5041385;28;20108;-61
2023/12/02 11:39:38;;;;;;;22.08;10.02;;;4.00;71.60;;;;;;5045722;28;20128;-61
2023/12/02 11:42:19;;;;;;;16.58;7.97;;;4.00;71.60;;;;;;5039049;28;20032;-62
2023/12/02 11:45:06;;;;;;;15.93;8.43;;;3.90;71.80;;;;;;5042207;28;20041;-62
2023/12/02 11:48:03;;;;;;;17.90;9.25;;;4.00;71.90;;;;;;5053329;28;20012;-62
2023/12/02 11:50:37;;;;;;;15.27;8.13;;;4.00;71.90;;;;;;5049092;28;20464;-61
2023/12/02 11:53:13;;;;;;;19.08;9.00;;;4.00;72.10;;;;;;5038697;28;20026;-61
2023/12/02 11:55:48;;;;;;;16.33;9.02;;;4.00;71.90;;;;;;5029057;28;20041;-62
2023/12/02 11:58:23;;;;;;;23.73;10.80;;;4.00;72.10;;;;;;5039454;28;20490;-62
2023/12/02 12:01:02;;;;;;;16.15;8.75;;;4.00;72.30;;;;;;5034217;28;20052;-61
2023/12/02 12:03:49;;;;;;;15.23;8.15;;;4.00;72.30;;;;;;5040984;28;20029;-61
2023/12/02 12:06:36;;;;;;;12.45;8.15;;;4.00;72.20;;;;;;5039568;28;20295;-62
2023/12/02 12:09:34;;;;;;;18.80;10.57;;;4.10;73.10;;;;;;5063009;28;20113;-61
2023/12/02 12:12:01;;;;;;;17.63;9.38;;;4.10;72.90;;;;;;5039409;28;20575;-61
2023/12/02 12:14:29;;;;;;;16.70;10.18;;;4.00;72.40;;;;;;5034048;28;20029;-61
2023/12/02 12:16:55;;;;;;;16.27;9.90;;;4.00;72.70;;;;;;5043384;28;20041;-61
2023/12/02 12:19:20;;;;;;;18.45;9.55;;;4.00;72.70;;;;;;5051082;28;20038;-61
2023/12/02 12:21:49;;;;;;;19.13;9.50;;;4.00;72.70;;;;;;5042279;28;20032;-61
2023/12/02 12:24:14;;;;;;;20.73;10.95;;;4.10;72.80;;;;;;5033052;28;20439;-61
2023/12/02 12:26:40;;;;;;;15.35;8.57;;;4.10;72.70;;;;;;5054385;28;20040;-62
2023/12/02 12:29:06;;;;;;;17.60;9.07;;;4.10;73.10;;;;;;5041148;28;20106;-61
2023/12/02 12:31:32;;;;;;;18.17;8.80;;;4.10;72.80;;;;;;5059181;28;20037;-62
2023/12/02 12:34:00;;;;;;;15.02;8.98;;;4.00;72.80;;;;;;5049566;28;20033;-62
2023/12/02 12:36:30;;;;;;;20.98;9.13;;;4.00;73.10;;;;;;5045345;28;20039;-61
2023/12/02 12:38:57;;;;;;;16.00;9.45;;;3.90;73.10;;;;;;5040432;28;20036;-61
2023/12/02 12:41:26;;;;;;;17.70;7.72;;;3.80;73.40;;;;;;5037188;28;20101;-61
2023/12/02 12:43:53;;;;;;;13.93;8.00;;;3.80;73.70;;;;;;5051682;28;20051;-60
2023/12/02 12:46:19;;;;;;;16.80;9.60;;;3.80;73.80;;;;;;5047901;28;20029;-61
2023/12/02 12:48:51;;;;;;;18.55;9.43;;;3.90;73.90;;;;;;5033807;28;20033;-61
2023/12/02 12:51:21;;;;;;;17.45;9.02;;;3.80;73.90;;;;;;5045198;28;20025;-61
2023/12/02 12:53:59;;;;;;;20.95;8.70;;;3.80;74.00;;;;;;5053172;28;20037;-60
2023/12/02 12:56:37;;;;;;;18.88;8.85;;;3.80;74.00;;;;;;5047175;28;20036;-60